createdAt,value
2017-06-08T00:00:43.124Z,66
2017-06-08T00:01:43.161Z,66.47
2017-06-08T00:02:43.200Z,65.81
2017-06-08T00:03:43.239Z,65.81
2017-06-08T00:04:43.275Z,65.81
2017-06-08T00:05:43.314Z,66.38
2017-06-08T00:06:43.351Z,66.28
2017-06-08T00:07:43.389Z,66.09
2017-06-08T00:08:43.430Z,66.19
2017-06-08T00:09:43.466Z,66.09
2017-06-08T00:10:43.503Z,66.38
2017-06-08T00:11:43.541Z,66.38
2017-06-08T00:12:43.585Z,66.09
2017-06-08T00:13:43.617Z,66
2017-06-08T00:14:43.656Z,66.19
2017-06-08T00:15:43.695Z,66
2017-06-08T00:16:43.733Z,66
2017-06-08T00:17:43.781Z,66.28
2017-06-08T00:18:43.809Z,66
2017-06-08T00:19:43.846Z,66.57
2017-06-08T00:20:43.887Z,66.57
2017-06-08T00:21:43.924Z,66.57
2017-06-08T00:22:44.275Z,66
2017-06-08T00:23:44.001Z,66.47
2017-06-08T00:24:44.037Z,66.19
2017-06-08T00:25:44.078Z,66.67
2017-06-08T00:26:44.116Z,66.57
2017-06-08T00:27:44.153Z,66.67
2017-06-08T00:28:44.190Z,66.38
2017-06-08T00:29:44.228Z,66.67
2017-06-08T00:30:44.266Z,66.57
2017-06-08T00:31:44.305Z,66.47
2017-06-08T00:32:44.341Z,66.67
2017-06-08T00:33:44.384Z,66.57
2017-06-08T00:34:44.420Z,66.86
2017-06-08T00:35:44.457Z,66.47
2017-06-08T00:36:44.497Z,66.76
2017-06-08T00:37:44.535Z,66.86
2017-06-08T00:38:44.571Z,66.67
2017-06-08T00:39:44.612Z,66.09
2017-06-08T00:40:44.647Z,66.28
2017-06-08T00:41:44.693Z,66.28
2017-06-08T00:42:44.723Z,66.19
2017-06-08T00:43:44.762Z,66.96
2017-06-08T00:44:44.800Z,66.76
2017-06-08T00:45:44.836Z,66.86
2017-06-08T00:46:44.876Z,66.67
2017-06-08T00:47:44.914Z,66.86
2017-06-08T00:48:44.952Z,66.38
2017-06-08T00:49:44.989Z,66.83
2017-06-08T00:50:45.026Z,66.54
2017-06-08T00:51:45.068Z,67.43
2017-06-08T00:52:45.106Z,67.11
2017-06-08T00:53:45.143Z,66.92
2017-06-08T00:54:45.182Z,67.11
2017-06-08T00:55:45.219Z,67.05
2017-06-08T00:56:45.256Z,67.49
2017-06-08T00:57:45.293Z,67.78
2017-06-08T00:58:45.331Z,67.49
2017-06-08T00:59:45.369Z,67.21
2017-06-08T01:00:45.407Z,67.69
2017-06-08T01:01:45.445Z,67.88
2017-06-08T01:02:45.484Z,67.78
2017-06-08T01:03:45.520Z,67.21
2017-06-08T01:04:45.561Z,67.49
2017-06-08T01:05:45.598Z,67.21
2017-06-08T01:06:45.638Z,67.69
2017-06-08T01:07:45.673Z,67.78
2017-06-08T01:08:45.715Z,67.49
2017-06-08T01:09:45.749Z,67.78
2017-06-08T01:10:45.786Z,67.88
2017-06-08T01:11:45.825Z,67.88
2017-06-08T01:12:45.864Z,67.88
2017-06-08T01:13:45.901Z,67.88
2017-06-08T01:14:45.936Z,67.49
2017-06-08T01:15:45.983Z,67.69
2017-06-08T01:16:46.015Z,67.78
2017-06-08T01:17:46.055Z,67.59
2017-06-08T01:18:46.090Z,67.59
2017-06-08T01:19:46.127Z,67.78
2017-06-08T01:20:46.165Z,67.78
2017-06-08T01:21:46.205Z,67.49
2017-06-08T01:22:46.239Z,67.21
2017-06-08T01:23:46.278Z,67.4
2017-06-08T01:24:46.315Z,67.49
2017-06-08T01:25:46.352Z,67.4
2017-06-08T01:26:46.397Z,67.4
2017-06-08T01:27:46.429Z,67.3
2017-06-08T01:28:46.469Z,67.3
2017-06-08T01:29:46.506Z,67.59
2017-06-08T01:30:46.543Z,67.59
2017-06-08T01:31:46.580Z,66.92
2017-06-08T01:32:46.619Z,67.49
2017-06-08T01:33:46.661Z,67.02
2017-06-08T01:34:46.693Z,67.11
2017-06-08T01:35:46.735Z,67.02
2017-06-08T01:36:46.772Z,66.92
2017-06-08T01:37:46.804Z,67.3
2017-06-08T01:38:46.844Z,67.3
2017-06-08T01:39:46.884Z,67.11
2017-06-08T01:40:47.234Z,67.49
2017-06-08T01:41:46.958Z,67.4
2017-06-08T01:42:46.995Z,67.11
2017-06-08T01:43:47.033Z,67.49
2017-06-08T01:44:47.072Z,67.21
2017-06-08T01:45:47.110Z,67.02
2017-06-08T01:46:47.145Z,67.4
2017-06-08T01:47:47.184Z,67.02
2017-06-08T01:48:47.223Z,67.21
2017-06-08T01:49:47.259Z,67.11
2017-06-08T01:50:47.306Z,67.3
2017-06-08T01:51:47.334Z,67.02
2017-06-08T01:52:47.372Z,67.21
2017-06-08T01:53:47.412Z,67.21
2017-06-08T01:54:47.450Z,67.3
2017-06-08T01:55:47.488Z,67.11
2017-06-08T01:56:47.527Z,67.02
2017-06-08T01:57:47.562Z,67.02
2017-06-08T01:58:47.599Z,67.49
2017-06-08T01:59:47.639Z,67.4
2017-06-08T02:00:47.677Z,67.36
2017-06-08T02:01:47.714Z,67.55
2017-06-08T02:02:47.796Z,67.27
2017-06-08T02:03:47.789Z,67.46
2017-06-08T02:04:47.826Z,67.46
2017-06-08T02:05:47.866Z,67.36
2017-06-08T02:06:47.901Z,67.46
2017-06-08T02:07:47.939Z,67.65
2017-06-08T02:08:47.976Z,67.65
2017-06-08T02:09:48.013Z,67.55
2017-06-08T02:10:48.051Z,67.36
2017-06-08T02:11:48.087Z,67.55
2017-06-08T02:12:48.129Z,67.46
2017-06-08T02:13:48.163Z,67.46
2017-06-08T02:14:48.202Z,67.46
2017-06-08T02:15:48.241Z,67.46
2017-06-08T02:16:48.278Z,67.55
2017-06-08T02:17:48.313Z,67.27
2017-06-08T02:18:48.350Z,67.46
2017-06-08T02:19:48.390Z,67.36
2017-06-08T02:20:48.427Z,67.75
2017-06-08T02:21:48.466Z,68.04
2017-06-08T02:22:48.504Z,67.94
2017-06-08T02:23:48.540Z,68.13
2017-06-08T02:24:48.577Z,68.41
2017-06-08T02:25:48.615Z,68.04
2017-06-08T02:26:48.652Z,68.61
2017-06-08T02:27:48.690Z,68.32
2017-06-08T02:28:49.038Z,68.04
2017-06-08T02:29:48.763Z,68.13
2017-06-08T02:30:48.805Z,68.41
2017-06-08T02:31:48.839Z,67.84
2017-06-08T02:32:48.880Z,68.04
2017-06-08T02:33:48.917Z,68.13
2017-06-08T02:34:48.960Z,68.8
2017-06-08T02:35:48.991Z,67.84
2017-06-08T02:36:49.024Z,68.41
2017-06-08T02:37:49.070Z,68.13
2017-06-08T02:38:49.101Z,68.57
2017-06-08T02:39:49.141Z,68.61
2017-06-08T02:40:49.179Z,68.41
2017-06-08T02:41:49.214Z,68.19
2017-06-08T02:42:49.251Z,68.7
2017-06-08T02:43:49.287Z,68.13
2017-06-08T02:44:49.325Z,68.67
2017-06-08T02:45:49.366Z,68.13
2017-06-08T02:46:49.411Z,68.32
2017-06-08T02:47:49.440Z,68.13
2017-06-08T02:48:49.476Z,68.13
2017-06-08T02:49:49.821Z,68.61
2017-06-08T02:50:49.550Z,68.13
2017-06-08T02:51:49.587Z,68.51
2017-06-08T02:52:49.627Z,68.51
2017-06-08T02:53:49.661Z,68.32
2017-06-08T02:54:49.701Z,68.9
2017-06-08T02:55:49.739Z,68.61
2017-06-08T02:56:49.774Z,68.61
2017-06-08T02:57:49.813Z,68.8
2017-06-08T02:58:49.849Z,68.67
2017-06-08T02:59:49.888Z,68.7
2017-06-08T03:00:49.923Z,68.61
2017-06-08T03:01:49.963Z,68.57
2017-06-08T03:02:50.000Z,68.8
2017-06-08T03:03:50.037Z,68.51
2017-06-08T03:04:50.075Z,68.9
2017-06-08T03:05:50.115Z,68.8
2017-06-08T03:06:50.149Z,68.67
2017-06-08T03:07:50.187Z,68.61
2017-06-08T03:08:50.224Z,68.29
2017-06-08T03:09:50.261Z,68.41
2017-06-08T03:10:50.299Z,68.8
2017-06-08T03:11:50.334Z,68.51
2017-06-08T03:12:50.374Z,68.8
2017-06-08T03:13:50.420Z,68.41
2017-06-08T03:14:50.449Z,68.61
2017-06-08T03:15:50.488Z,68.8
2017-06-08T03:16:50.527Z,68.61
2017-06-08T03:17:50.562Z,68.8
2017-06-08T03:18:50.600Z,68.61
2017-06-08T03:19:50.638Z,68.99
2017-06-08T03:20:50.674Z,68.7
2017-06-08T03:21:50.713Z,69.27
2017-06-08T03:22:50.749Z,68.51
2017-06-08T03:23:50.786Z,68.8
2017-06-08T03:24:50.826Z,68.51
2017-06-08T03:25:50.862Z,68.9
2017-06-08T03:26:50.903Z,68.41
2017-06-08T03:27:50.937Z,68.23
2017-06-08T03:28:50.976Z,68.84
2017-06-08T03:29:51.015Z,68.51
2017-06-08T03:30:51.054Z,68.35
2017-06-08T03:31:51.091Z,68.16
2017-06-08T03:32:51.128Z,69.41
2017-06-08T03:33:51.168Z,69.15
2017-06-08T03:34:51.203Z,69.25
2017-06-08T03:35:51.245Z,69.19
2017-06-08T03:36:51.282Z,68.33
2017-06-08T03:37:51.317Z,67.69
2017-06-08T03:38:51.360Z,67.02
2017-06-08T03:39:51.397Z,66.74
2017-06-08T03:40:51.434Z,65.88
2017-06-08T03:41:51.479Z,65.68
2017-06-08T03:42:51.513Z,65.01
2017-06-08T03:43:51.551Z,65.58
2017-06-08T03:44:51.590Z,65.11
2017-06-08T03:45:51.628Z,65.39
2017-06-08T03:46:51.668Z,64.53
2017-06-08T03:47:51.708Z,64.25
2017-06-08T03:48:51.744Z,64.5
2017-06-08T03:49:51.784Z,65.08
2017-06-08T03:50:51.822Z,64.5
2017-06-08T03:51:51.859Z,64.59
2017-06-08T03:52:51.904Z,64.98
2017-06-08T03:53:51.939Z,64.59
2017-06-08T03:54:51.979Z,64.69
2017-06-08T03:55:52.016Z,64.88
2017-06-08T03:56:52.056Z,63.93
2017-06-08T03:57:52.124Z,63.73
2017-06-08T03:58:52.131Z,63.57
2017-06-08T03:59:52.478Z,63.86
2017-06-08T04:00:52.210Z,63.86
2017-06-08T04:01:52.248Z,63.86
2017-06-08T04:02:52.286Z,63.29
2017-06-08T04:03:52.325Z,63.29
2017-06-08T04:04:52.361Z,63.57
2017-06-08T04:05:52.708Z,63.1
2017-06-08T04:06:52.452Z,63.48
2017-06-08T04:07:52.477Z,62.9
2017-06-08T04:08:52.520Z,63.29
2017-06-08T04:09:52.563Z,62.62
2017-06-08T04:10:52.598Z,63.1
2017-06-08T04:11:52.636Z,63.19
2017-06-08T04:12:52.672Z,63.39
2017-06-08T04:13:52.714Z,63.89
2017-06-08T04:14:52.754Z,63.51
2017-06-08T04:15:52.789Z,62.93
2017-06-08T04:16:52.830Z,62.96
2017-06-08T04:17:52.872Z,63.26
2017-06-08T04:18:52.906Z,61.94
2017-06-08T04:19:52.948Z,61.4
2017-06-08T04:20:52.988Z,61.52
2017-06-08T04:21:53.025Z,60.88
2017-06-08T04:22:53.378Z,59.66
2017-06-08T04:23:53.105Z,59.41
2017-06-08T04:24:53.144Z,58.92
2017-06-08T04:25:53.186Z,57.8
2017-06-08T04:26:53.226Z,56.29
2017-06-08T04:27:53.271Z,56.2
2017-06-08T04:28:53.307Z,55.74
2017-06-08T04:29:53.347Z,55.26
2017-06-08T04:30:53.390Z,54.22
2017-06-08T04:31:53.433Z,54.22
2017-06-08T04:32:53.470Z,53.09
2017-06-08T04:33:53.511Z,52.23
2017-06-08T04:34:53.553Z,51.65
2017-06-08T04:35:53.591Z,51.75
2017-06-08T04:36:53.633Z,51.26
2017-06-08T04:37:53.676Z,51.05
2017-06-08T04:38:53.716Z,50.57
2017-06-08T04:39:53.760Z,50.73
2017-06-08T04:40:53.833Z,51.02
2017-06-08T04:41:53.840Z,50.99
2017-06-08T04:42:53.885Z,51.48
2017-06-08T04:43:53.922Z,51.17
2017-06-08T04:44:53.961Z,51.35
2017-06-08T04:45:54.004Z,50.87
2017-06-08T04:46:54.045Z,50.99
2017-06-08T04:47:54.082Z,51.57
2017-06-08T04:48:54.125Z,51.7
2017-06-08T04:49:54.165Z,51.72
2017-06-08T04:50:54.208Z,51.07
2017-06-08T04:51:54.249Z,49.27
2017-06-08T04:52:54.289Z,48.49
2017-06-08T04:53:54.333Z,48.18
2017-06-08T04:54:54.372Z,47.6
2017-06-08T04:55:54.414Z,47.87
2017-06-08T04:56:54.455Z,47.97
2017-06-08T04:57:54.497Z,48.61
2017-06-08T04:58:54.539Z,48.61
2017-06-08T04:59:54.583Z,48.3
2017-06-08T05:00:54.625Z,48.69
2017-06-08T05:01:54.665Z,48.11
2017-06-08T05:02:54.706Z,48.4
2017-06-08T05:03:54.747Z,48.33
2017-06-08T05:04:54.800Z,48.93
2017-06-08T05:05:54.873Z,47.8
2017-06-08T05:06:54.873Z,47.63
2017-06-08T05:07:54.911Z,46.49
2017-06-08T05:08:54.953Z,45.92
2017-06-08T05:09:54.994Z,45.79
2017-06-08T05:10:55.042Z,45.79
2017-06-08T05:11:55.077Z,46.08
2017-06-08T05:12:55.118Z,45.77
2017-06-08T05:13:55.161Z,46.45
2017-06-08T05:14:55.201Z,45.97
2017-06-08T05:15:55.243Z,45.97
2017-06-08T05:16:55.286Z,46.33
2017-06-08T05:17:55.324Z,46.71
2017-06-08T05:18:55.367Z,46.62
2017-06-08T05:19:55.404Z,46.69
2017-06-08T05:20:55.450Z,46.69
2017-06-08T05:21:55.487Z,46.98
2017-06-08T05:22:55.529Z,46.59
2017-06-08T05:23:55.570Z,47.27
2017-06-08T05:24:55.610Z,47.56
2017-06-08T05:25:55.653Z,47.53
2017-06-08T05:26:55.693Z,47.56
2017-06-08T05:27:55.737Z,47.24
2017-06-08T05:28:55.776Z,46.86
2017-06-08T05:29:55.816Z,47.53
2017-06-08T05:30:55.858Z,47.53
2017-06-08T05:31:55.898Z,47.53
2017-06-08T05:32:55.938Z,47.34
2017-06-08T05:33:55.981Z,47.63
2017-06-08T05:34:56.018Z,47.63
2017-06-08T05:35:56.066Z,47.82
2017-06-08T05:36:56.101Z,48.69
2017-06-08T05:37:56.143Z,48.79
2017-06-08T05:38:56.184Z,49
2017-06-08T05:39:56.225Z,49.24
2017-06-08T05:40:56.268Z,48.79
2017-06-08T05:41:56.309Z,48.93
2017-06-08T05:42:56.351Z,46.88
2017-06-08T05:43:56.396Z,44.98
2017-06-08T05:44:56.438Z,44.16
2017-06-08T05:45:56.484Z,42.46
2017-06-08T05:46:56.527Z,41.45
2017-06-08T05:47:56.570Z,40.03
2017-06-08T05:48:56.616Z,39.49
2017-06-08T05:49:56.659Z,38.07
2017-06-08T05:50:56.708Z,36.92
2017-06-08T05:51:56.758Z,35.78
2017-06-08T05:52:56.801Z,34.44
2017-06-08T05:53:56.954Z,33.87
2017-06-08T05:54:57.044Z,32.03
2017-06-08T05:55:56.943Z,31.16
2017-06-08T05:56:56.989Z,30.09
2017-06-08T05:57:57.037Z,29.02
2017-06-08T05:58:57.086Z,29.22
2017-06-08T05:59:57.133Z,28.44
2017-06-08T06:00:57.184Z,27.49
2017-06-08T06:01:57.232Z,27.39
2017-06-08T06:02:57.281Z,26.53
2017-06-08T06:03:57.329Z,26.15
2017-06-08T06:04:57.381Z,25.76
2017-06-08T06:05:57.431Z,24.77
2017-06-08T06:06:57.480Z,25.09
2017-06-08T06:07:57.529Z,24.51
2017-06-08T06:08:57.580Z,24.02
2017-06-08T06:09:57.630Z,23.63
2017-06-08T06:10:57.678Z,23.03
2017-06-08T06:11:57.730Z,23.02
2017-06-08T06:12:57.837Z,22.05
2017-06-08T06:13:57.889Z,21.94
2017-06-08T06:14:57.887Z,21.92
2017-06-08T06:15:57.937Z,22.21
2017-06-08T06:16:57.981Z,22.88
2017-06-08T06:17:58.035Z,22.98
2017-06-08T06:18:58.087Z,22.8
2017-06-08T06:19:58.132Z,22.89
2017-06-08T06:20:58.183Z,22.81
2017-06-08T06:21:58.233Z,22.13
2017-06-08T06:22:58.283Z,21.45
2017-06-08T06:23:58.337Z,20.57
2017-06-08T06:24:58.419Z,21.15
2017-06-08T06:25:58.524Z,21.73
2017-06-08T06:26:58.487Z,21.81
2017-06-08T06:27:58.536Z,21.61
2017-06-08T06:28:58.586Z,21.81
2017-06-08T06:29:58.674Z,21.52
2017-06-08T06:30:58.686Z,21.42
2017-06-08T06:31:58.737Z,21.71
2017-06-08T06:32:58.783Z,21.61
2017-06-08T06:33:58.854Z,22.3
2017-06-08T06:34:58.884Z,21.8
2017-06-08T06:35:58.937Z,21.7
2017-06-08T06:36:58.984Z,21.89
2017-06-08T06:37:59.040Z,21.99
2017-06-08T06:38:59.093Z,21.99
2017-06-08T06:39:59.161Z,21.69
2017-06-08T06:40:59.185Z,21.98
2017-06-08T06:41:59.234Z,21.69
2017-06-08T06:42:59.284Z,22.08
2017-06-08T06:43:59.333Z,21.88
2017-06-08T06:44:59.382Z,22.17
2017-06-08T06:45:59.432Z,22.17
2017-06-08T06:46:59.481Z,21.98
2017-06-08T06:47:59.528Z,21.88
2017-06-08T06:48:59.579Z,22.17
2017-06-08T06:49:59.629Z,21.98
2017-06-08T06:50:59.701Z,21.88
2017-06-08T06:51:59.728Z,22.17
2017-06-08T06:52:59.777Z,21.98
2017-06-08T06:53:59.828Z,22.17
2017-06-08T06:54:59.874Z,21.98
2017-06-08T06:55:59.982Z,22.17
2017-06-08T06:57:00.291Z,22.08
2017-06-08T06:58:00.022Z,22.27
2017-06-08T06:59:00.087Z,22.55
2017-06-08T07:00:00.120Z,23.03
2017-06-08T07:01:00.175Z,22.63
2017-06-08T07:02:00.286Z,23.12
2017-06-08T07:03:00.275Z,23.41
2017-06-08T07:04:00.316Z,23.23
2017-06-08T07:05:00.395Z,22.94
2017-06-08T07:06:00.419Z,22.64
2017-06-08T07:07:00.463Z,22.84
2017-06-08T07:08:01.373Z,22.74
2017-06-08T07:09:00.560Z,23.12
2017-06-08T07:10:01.415Z,23.22
2017-06-08T07:11:00.662Z,23.89
2017-06-08T07:12:00.721Z,23.79
2017-06-08T07:13:00.885Z,23.69
2017-06-08T07:14:00.804Z,23.58
2017-06-08T07:15:00.863Z,23.39
2017-06-08T07:16:00.902Z,24.06
2017-06-08T07:17:00.944Z,24.06
2017-06-08T07:18:01.020Z,24.34
2017-06-08T07:19:01.050Z,24.54
2017-06-08T07:20:01.090Z,24.54
2017-06-08T07:21:01.141Z,24.62
2017-06-08T07:22:01.183Z,25.01
2017-06-08T07:23:01.235Z,25.2
2017-06-08T07:24:01.586Z,25.49
2017-06-08T07:25:01.640Z,25.3
2017-06-08T07:26:01.374Z,25.21
2017-06-08T07:27:01.421Z,25.51
2017-06-08T07:28:01.467Z,25.51
2017-06-08T07:29:01.517Z,25.41
2017-06-08T07:30:01.565Z,25.52
2017-06-08T07:31:01.614Z,25.24
2017-06-08T07:32:01.675Z,25.04
2017-06-08T07:33:01.708Z,24.48
2017-06-08T07:34:01.758Z,24.38
2017-06-08T07:35:01.803Z,24.38
2017-06-08T07:36:01.853Z,24.19
2017-06-08T07:37:01.905Z,23.9
2017-06-08T07:38:01.950Z,23.72
2017-06-08T07:39:01.997Z,23.73
2017-06-08T07:40:02.089Z,23.62
2017-06-08T07:41:02.099Z,23.72
2017-06-08T07:42:02.146Z,23.43
2017-06-08T07:43:02.505Z,23.52
2017-06-08T07:44:02.247Z,22.94
2017-06-08T07:45:02.295Z,23.13
2017-06-08T07:46:02.340Z,23.34
2017-06-08T07:47:02.394Z,23.44
2017-06-08T07:48:02.440Z,22.86
2017-06-08T07:49:02.491Z,22.96
2017-06-08T07:50:02.540Z,22.48
2017-06-08T07:51:02.589Z,21.99
2017-06-08T07:52:02.640Z,21.89
2017-06-08T07:53:02.691Z,22
2017-06-08T07:54:02.741Z,21.7
2017-06-08T07:55:02.790Z,21.91
2017-06-08T07:56:02.923Z,21.41
2017-06-08T07:57:02.891Z,21.8
2017-06-08T07:58:02.947Z,21.91
2017-06-08T07:59:02.994Z,21.91
2017-06-08T08:00:03.043Z,21.73
2017-06-08T08:01:03.129Z,20.86
2017-06-08T08:02:03.145Z,20.38
2017-06-08T08:03:03.201Z,20.48
2017-06-08T08:04:03.248Z,20.67
2017-06-08T08:05:03.301Z,20.39
2017-06-08T08:06:03.354Z,20.4
2017-06-08T08:07:03.476Z,19.91
2017-06-08T08:08:03.487Z,19.33
2017-06-08T08:09:03.747Z,20.01
2017-06-08T08:10:03.813Z,19.44
2017-06-08T08:11:03.641Z,19.06
2017-06-08T08:12:03.828Z,19.64
2017-06-08T08:13:03.728Z,19.16
2017-06-08T08:14:03.773Z,18.77
2017-06-08T08:15:03.834Z,18.68
2017-06-08T08:16:03.880Z,18.48
2017-06-08T08:17:04.000Z,18
2017-06-08T08:18:03.990Z,18
2017-06-08T08:19:04.046Z,18.1
2017-06-08T08:20:04.299Z,17.11
2017-06-08T08:21:04.147Z,16.92
2017-06-08T08:22:04.202Z,17
2017-06-08T08:23:04.257Z,16.9
2017-06-08T08:24:04.424Z,17.19
2017-06-08T08:25:04.361Z,17.08
2017-06-08T08:26:04.587Z,16.69
2017-06-08T08:27:04.471Z,16.68
2017-06-08T08:28:04.608Z,17.26
2017-06-08T08:29:04.627Z,16.77
2017-06-08T08:30:04.665Z,17.05
2017-06-08T08:31:04.848Z,17.43
2017-06-08T08:32:04.734Z,17.9
2017-06-08T08:33:04.791Z,18.37
2017-06-08T08:34:04.840Z,18.85
2017-06-08T08:35:04.892Z,19.04
2017-06-08T08:36:04.937Z,19.63
2017-06-08T08:37:04.990Z,19.81
2017-06-08T08:38:05.071Z,19.71
2017-06-08T08:39:05.098Z,20.4
2017-06-08T08:40:05.165Z,20.59
2017-06-08T08:41:05.194Z,20.7
2017-06-08T08:42:05.241Z,20.42
2017-06-08T08:43:05.293Z,20.43
2017-06-08T08:44:05.355Z,19.87
2017-06-08T08:45:05.677Z,19.29
2017-06-08T08:46:05.883Z,19.01
2017-06-08T08:47:05.638Z,18.71
2017-06-08T08:48:05.636Z,17.93
2017-06-08T08:49:05.608Z,17.84
2017-06-08T08:50:05.660Z,18.03
2017-06-08T08:51:05.945Z,18.42
2017-06-08T08:52:05.804Z,18.03
2017-06-08T08:53:05.819Z,17.93
2017-06-08T08:54:05.905Z,18.31
2017-06-08T08:55:06.202Z,18.51
2017-06-08T08:56:05.983Z,17.82
2017-06-08T08:57:06.087Z,17.93
2017-06-08T08:58:06.176Z,17.94
2017-06-08T08:59:06.345Z,17.94
2017-06-08T09:00:06.412Z,18.04
2017-06-08T09:01:06.263Z,17.66
2017-06-08T09:02:06.319Z,17.17
2017-06-08T09:03:06.360Z,16.88
2017-06-08T09:04:06.412Z,16.77
2017-06-08T09:05:06.468Z,16.77
2017-06-08T09:06:06.522Z,17.55
2017-06-08T09:07:06.573Z,16.86
2017-06-08T09:08:06.627Z,16.96
2017-06-08T09:09:06.734Z,16.86
2017-06-08T09:10:06.741Z,16.86
2017-06-08T09:11:06.794Z,17.24
2017-06-08T09:12:06.847Z,17.44
2017-06-08T09:13:06.904Z,17.15
2017-06-08T09:14:06.958Z,16.47
2017-06-08T09:15:07.318Z,16.47
2017-06-08T09:16:07.065Z,16.46
2017-06-08T09:17:07.122Z,16.75
2017-06-08T09:18:07.177Z,16.85
2017-06-08T09:19:07.232Z,16.66
2017-06-08T09:20:07.285Z,16.85
2017-06-08T09:21:07.337Z,17.43
2017-06-08T09:22:07.395Z,17.33
2017-06-08T09:23:07.451Z,17.24
2017-06-08T09:24:07.510Z,17.24
2017-06-08T09:25:07.562Z,16.75
2017-06-08T09:26:07.618Z,16.46
2017-06-08T09:27:07.680Z,16.75
2017-06-08T09:28:07.747Z,16.56
2017-06-08T09:29:07.782Z,16.85
2017-06-08T09:30:07.840Z,16.85
2017-06-08T09:31:07.929Z,16.56
2017-06-08T09:32:07.952Z,16.66
2017-06-08T09:33:08.003Z,16.56
2017-06-08T09:34:08.066Z,16.75
2017-06-08T09:35:08.116Z,15.87
2017-06-08T09:36:08.173Z,15.87
2017-06-08T09:37:08.228Z,15.67
2017-06-08T09:38:08.284Z,16.54
2017-06-08T09:39:08.340Z,16.44
2017-06-08T09:40:08.396Z,16.73
2017-06-08T09:41:08.450Z,17.51
2017-06-08T09:42:08.509Z,16.74
2017-06-08T09:43:08.567Z,16.44
2017-06-08T09:44:08.617Z,15.74
2017-06-08T09:45:08.676Z,16.03
2017-06-08T09:46:09.068Z,16.52
2017-06-08T09:47:08.786Z,16.61
2017-06-08T09:48:08.842Z,16.6
2017-06-08T09:49:08.901Z,17.09
2017-06-08T09:50:08.974Z,17.29
2017-06-08T09:51:09.024Z,17.29
2017-06-08T09:52:09.079Z,17.19
2017-06-08T09:53:09.124Z,17.29
2017-06-08T09:54:09.179Z,17.18
2017-06-08T09:55:09.230Z,17.18
2017-06-08T09:56:09.290Z,16.98
2017-06-08T09:57:09.356Z,16.98
2017-06-08T09:58:09.400Z,17.46
2017-06-08T09:59:09.460Z,17.85
2017-06-08T10:00:09.511Z,18.15
2017-06-08T10:01:09.588Z,17.95
2017-06-08T10:02:09.674Z,17.76
2017-06-08T10:03:09.697Z,17.74
2017-06-08T10:04:09.746Z,17.84
2017-06-08T10:05:09.794Z,18.13
2017-06-08T10:06:09.842Z,17.85
2017-06-08T10:07:09.903Z,18.44
2017-06-08T10:08:09.957Z,18.92
2017-06-08T10:09:10.011Z,18.73
2017-06-08T10:10:10.067Z,18.54
2017-06-08T10:11:10.170Z,18.54
2017-06-08T10:12:10.175Z,18.33
2017-06-08T10:13:10.234Z,18.52
2017-06-08T10:14:10.288Z,19
2017-06-08T10:15:10.347Z,18.9
2017-06-08T10:16:10.403Z,19.29
2017-06-08T10:17:10.458Z,19.78
2017-06-08T10:18:10.511Z,19.78
2017-06-08T10:19:10.568Z,19.96
2017-06-08T10:20:10.629Z,19.87
2017-06-08T10:21:10.678Z,20.06
2017-06-08T10:22:10.732Z,19.96
2017-06-08T10:23:10.787Z,20.35
2017-06-08T10:24:10.843Z,20.15
2017-06-08T10:25:11.208Z,20.35
2017-06-08T10:26:10.957Z,20.25
2017-06-08T10:27:11.023Z,20.45
2017-06-08T10:28:11.068Z,20.45
2017-06-08T10:29:11.119Z,20.34
2017-06-08T10:30:11.488Z,20.24
2017-06-08T10:31:11.549Z,20.43
2017-06-08T10:32:11.279Z,20.34
2017-06-08T10:33:11.405Z,20.42
2017-06-08T10:34:11.387Z,20.91
2017-06-08T10:35:11.445Z,20.51
2017-06-08T10:36:11.500Z,20.61
2017-06-08T10:37:11.549Z,21.29
2017-06-08T10:38:11.606Z,21.19
2017-06-08T10:39:11.657Z,20.71
2017-06-08T10:40:11.714Z,21
2017-06-08T10:41:11.766Z,20.72
2017-06-08T10:42:11.820Z,20.71
2017-06-08T10:43:11.873Z,21.09
2017-06-08T10:44:11.928Z,21.37
2017-06-08T10:45:11.984Z,21.57
2017-06-08T10:46:12.038Z,22.14
2017-06-08T10:47:12.093Z,21.66
2017-06-08T10:48:12.151Z,22.05
2017-06-08T10:49:12.204Z,22.44
2017-06-08T10:50:12.270Z,22.63
2017-06-08T10:51:12.314Z,22.24
2017-06-08T10:52:12.376Z,22.34
2017-06-08T10:53:12.423Z,22.53
2017-06-08T10:54:12.477Z,22.63
2017-06-08T10:55:12.535Z,22.92
2017-06-08T10:56:12.587Z,22.81
2017-06-08T10:57:12.645Z,23.02
2017-06-08T10:58:12.696Z,22.52
2017-06-08T10:59:12.756Z,22.81
2017-06-08T11:00:12.834Z,22.81
2017-06-08T11:01:12.861Z,22.91
2017-06-08T11:02:12.932Z,22.62
2017-06-08T11:03:12.963Z,22.91
2017-06-08T11:04:13.016Z,22.8
2017-06-08T11:05:13.068Z,23.28
2017-06-08T11:06:13.118Z,23.38
2017-06-08T11:07:13.169Z,22.89
2017-06-08T11:08:13.533Z,23.18
2017-06-08T11:09:13.269Z,23.18
2017-06-08T11:10:13.321Z,24.04
2017-06-08T11:11:13.370Z,24.13
2017-06-08T11:12:13.420Z,24.23
2017-06-08T11:13:13.467Z,24.23
2017-06-08T11:14:13.556Z,24.52
2017-06-08T11:15:13.565Z,25.01
2017-06-08T11:16:13.613Z,24.91
2017-06-08T11:17:13.661Z,25.2
2017-06-08T11:18:13.714Z,25.2
2017-06-08T11:19:13.754Z,24.99
2017-06-08T11:20:13.802Z,25.19
2017-06-08T11:21:13.851Z,25.49
2017-06-08T11:22:13.899Z,25.29
2017-06-08T11:23:14.015Z,25.38
2017-06-08T11:24:13.993Z,25.67
2017-06-08T11:25:14.037Z,25.58
2017-06-08T11:26:14.128Z,25.67
2017-06-08T11:27:14.135Z,25.77
2017-06-08T11:28:14.177Z,25.58
2017-06-08T11:29:14.222Z,25.96
2017-06-08T11:30:14.270Z,25.87
2017-06-08T11:31:14.315Z,25.96
2017-06-08T11:32:14.359Z,25.87
2017-06-08T11:33:14.405Z,26.26
2017-06-08T11:34:14.457Z,26.26
2017-06-08T11:35:14.498Z,26.15
2017-06-08T11:36:14.544Z,26.25
2017-06-08T11:37:14.592Z,26.05
2017-06-08T11:38:14.635Z,26.15
2017-06-08T11:39:15.130Z,26.53
2017-06-08T11:40:14.724Z,26.43
2017-06-08T11:41:14.770Z,26.53
2017-06-08T11:42:14.817Z,26.73
2017-06-08T11:43:14.860Z,26.92
2017-06-08T11:44:14.903Z,26.92
2017-06-08T11:45:14.952Z,27.11
2017-06-08T11:46:14.996Z,27.11
2017-06-08T11:47:15.043Z,27.01
2017-06-08T11:48:15.086Z,27.21
2017-06-08T11:49:15.131Z,27.11
2017-06-08T11:50:15.177Z,27.01
2017-06-08T11:51:15.220Z,27.31
2017-06-08T11:52:15.266Z,27.5
2017-06-08T11:53:15.351Z,27.21
2017-06-08T11:54:15.358Z,27.31
2017-06-08T11:55:15.404Z,26.43
2017-06-08T11:56:15.448Z,26.82
2017-06-08T11:57:15.492Z,26.53
2017-06-08T11:58:15.537Z,27.01
2017-06-08T11:59:15.582Z,26.82
2017-06-08T12:00:15.627Z,27.5
2017-06-08T12:01:15.684Z,27.21
2017-06-08T12:02:15.718Z,27.01
2017-06-08T12:03:15.764Z,26.92
2017-06-08T12:04:15.806Z,26.82
2017-06-08T12:05:15.853Z,27.1
2017-06-08T12:06:15.940Z,27
2017-06-08T12:07:15.973Z,27.1
2017-06-08T12:08:16.009Z,27.29
2017-06-08T12:09:16.028Z,27.39
2017-06-08T12:10:16.075Z,27.49
2017-06-08T12:11:16.116Z,27.49
2017-06-08T12:12:16.165Z,27.49
2017-06-08T12:13:16.205Z,27.49
2017-06-08T12:14:16.253Z,27.1
2017-06-08T12:15:16.297Z,27.1
2017-06-08T12:16:16.340Z,27.2
2017-06-08T12:17:16.385Z,27.29
2017-06-08T12:18:16.445Z,27.2
2017-06-08T12:19:16.473Z,27.2
2017-06-08T12:20:16.554Z,27
2017-06-08T12:21:16.564Z,27.1
2017-06-08T12:22:16.614Z,27.49
2017-06-08T12:23:16.654Z,27.78
2017-06-08T12:24:16.694Z,27.31
2017-06-08T12:25:16.740Z,27.6
2017-06-08T12:26:16.786Z,28.38
2017-06-08T12:27:16.826Z,27.31
2017-06-08T12:28:16.870Z,27.21
2017-06-08T12:29:16.920Z,27.01
2017-06-08T12:30:16.961Z,27.4
2017-06-08T12:31:17.007Z,26.92
2017-06-08T12:32:17.049Z,27.1
2017-06-08T12:33:17.108Z,27.49
2017-06-08T12:34:17.140Z,26.9
2017-06-08T12:35:17.183Z,27.21
2017-06-08T12:36:17.229Z,27.2
2017-06-08T12:37:17.274Z,27.1
2017-06-08T12:38:17.316Z,26.9
2017-06-08T12:39:17.360Z,26.62
2017-06-08T12:40:17.413Z,26.9
2017-06-08T12:41:17.448Z,27.01
2017-06-08T12:42:17.531Z,26.34
2017-06-08T12:43:17.539Z,26.43
2017-06-08T12:44:17.582Z,26.14
2017-06-08T12:45:17.631Z,26.23
2017-06-08T12:46:17.672Z,26.25
2017-06-08T12:47:17.721Z,26.43
2017-06-08T12:48:17.761Z,26.43
2017-06-08T12:49:17.806Z,26.25
2017-06-08T12:50:17.850Z,26.23
2017-06-08T12:51:17.895Z,26.34
2017-06-08T12:52:17.941Z,26.34
2017-06-08T12:53:17.985Z,26.15
2017-06-08T12:54:18.030Z,26.53
2017-06-08T12:55:18.076Z,26.53
2017-06-08T12:56:18.121Z,26.43
2017-06-08T12:57:18.162Z,26.25